Time;durP1;ratioP1;P1;durP2;ratioP2;P2;SDS_P1;SDS_P2;PMS_P1;PMS_P2;Temp;Humidity;BMP_temperature;BMP_pressure;BME280_temperature;BME280_humidity;BME280_pressure;Samples;Min_cycle;Max_cycle;Signal;HPM_P1;HPM_P2
2023/06/10 00:01:38;;;;;;;11.40;6.70;;;;;;;-144.73;48.22;84064.38;110597;1272;22924;-64
2023/06/10 00:04:24;;;;;;;10.60;6.40;;;;;;;-144.73;49.10;84093.23;110553;1272;22144;-65
2023/06/10 00:07:10;;;;;;;15.20;6.40;;;;;;;-144.73;49.76;84090.86;110710;1272;22194;-63
2023/06/10 00:09:57;;;;;;;9.30;6.70;;;;;;;-144.73;50.13;84101.92;110702;1273;22174;-63
2023/06/10 00:12:43;;;;;;;12.60;6.50;;;;;;;-144.73;50.38;84110.23;110577;1272;22985;-63
2023/06/10 00:15:30;;;;;;;9.60;6.40;;;;;;;-144.73;50.80;84142.64;110561;1272;22125;-63
2023/06/10 00:18:16;;;;;;;10.80;6.60;;;;;;;-144.73;50.81;84145.02;110586;1272;22180;-64
2023/06/10 00:21:04;;;;;;;13.60;6.30;;;;;;;-144.73;51.12;84141.45;110568;1272;22216;-65
2023/06/10 00:23:51;;;;;;;12.70;6.60;;;;;;;-144.73;51.53;84160.42;110561;1272;22108;-65
2023/06/10 00:26:41;;;;;;;13.40;6.50;;;;;;;-144.73;51.75;84163.98;110604;1272;22742;-64
2023/06/10 00:29:27;;;;;;;11.10;6.00;;;;;;;-144.73;51.99;84183.34;110583;1273;22145;-64
2023/06/10 00:32:13;;;;;;;11.00;6.50;;;;;;;-144.73;52.29;84191.26;110566;1272;22934;-69
2023/06/10 00:35:00;;;;;;;13.80;6.40;;;;;;;-144.73;52.74;84187.70;110626;1272;22166;-66
2023/06/10 00:37:45;;;;;;;12.20;6.40;;;;;;;-144.73;52.77;84197.98;110611;1273;22164;-67
2023/06/10 00:40:38;;;;;;;10.50;6.60;;;;;;;-144.73;53.08;84204.70;110541;1273;22158;-65
2023/06/10 00:43:25;;;;;;;15.10;6.60;;;;;;;-144.73;53.19;84206.67;110552;1273;22281;-63
2023/06/10 00:46:12;;;;;;;10.40;7.00;;;;;;;-144.73;53.34;84207.08;110573;1272;22101;-63
2023/06/10 00:48:58;;;;;;;12.00;7.00;;;;;;;-144.73;53.63;84221.30;110612;1272;22121;-64
2023/06/10 00:51:44;;;;;;;10.80;7.20;;;;;;;-144.73;54.02;84222.09;110602;1272;22868;-63
2023/06/10 00:54:30;;;;;;;10.30;7.40;;;;;;;-144.73;54.41;84231.97;110591;1273;22844;-65
2023/06/10 00:57:16;;;;;;;13.10;7.60;;;;;;;-144.73;54.49;84243.83;110575;1272;22091;-64
2023/06/10 01:00:07;;;;;;;11.40;6.30;;;;;;;-144.73;54.61;84262.41;110552;1272;22121;-62
2023/06/10 01:02:53;;;;;;;11.40;7.00;;;;;;;-144.73;54.95;84267.15;110579;1273;22880;-61
2023/06/10 01:05:41;;;;;;;12.00;6.90;;;;;;;-144.73;55.37;84276.63;110629;1255;22191;-62
2023/06/10 01:08:52;;;;;;;13.20;7.80;;;;;;;-144.73;55.69;84271.49;110539;1272;22167;-64
2023/06/10 01:11:52;;;;;;;12.10;8.10;;;;;;;-144.73;56.10;84277.83;111152;1256;22119;-62
2023/06/10 01:14:38;;;;;;;12.00;6.90;;;;;;;-144.73;56.78;84278.60;110580;1273;22110;-61
2023/06/10 01:17:27;;;;;;;9.10;7.60;;;;;;;-144.73;57.36;84301.14;111083;1256;22828;-64
2023/06/10 01:20:13;;;;;;;17.60;8.00;;;;;;;-144.73;57.75;84311.81;110560;1272;22111;-64
2023/06/10 01:23:00;;;;;;;9.70;6.90;;;;;;;-144.73;58.03;84299.56;110604;1273;22155;-62
2023/06/10 01:25:58;;;;;;;11.40;8.00;;;;;;;-144.73;57.89;84337.52;110547;1272;22865;-65
2023/06/10 01:28:53;;;;;;;10.60;7.20;;;;;;;-144.73;58.08;84322.88;110595;1273;22084;-66
2023/06/10 01:31:58;;;;;;;12.30;8.00;;;;;;;-144.73;58.33;84332.76;110577;1272;22126;-61
2023/06/10 01:34:45;;;;;;;13.00;8.10;;;;;;;-144.73;58.10;84342.64;110563;1273;22085;-66
2023/06/10 01:37:33;;;;;;;11.80;8.30;;;;;;;-144.73;58.33;84334.73;110600;1272;22917;-62
2023/06/10 01:40:19;;;;;;;13.80;8.00;;;;;;;-144.73;58.57;84358.45;110577;1272;22116;-62
2023/06/10 01:43:05;;;;;;;15.20;9.00;;;;;;;-144.73;58.79;84344.23;110563;1273;22301;-64
2023/06/10 01:45:52;;;;;;;17.80;8.30;;;;;;;-144.73;58.82;84343.83;110557;1273;22862;-64
2023/06/10 01:48:38;;;;;;;11.50;8.30;;;;;;;-144.73;58.97;84342.64;110567;1272;22222;-64
2023/06/10 01:51:24;;;;;;;14.70;8.60;;;;;;;-144.73;59.09;84354.50;110605;1272;22863;-63
2023/06/10 01:54:11;;;;;;;17.60;8.20;;;;;;;-144.73;58.98;84343.83;110623;1272;22182;-63
2023/06/10 01:56:57;;;;;;;15.20;8.80;;;;;;;-144.73;59.17;84339.48;110563;1272;22823;-63
2023/06/10 01:59:44;;;;;;;26.30;8.20;;;;;;;-144.73;59.36;84354.50;110576;1272;22105;-64
2023/06/10 02:02:30;;;;;;;10.70;8.30;;;;;;;-144.73;59.26;84350.55;110576;1272;22760;-63
2023/06/10 02:05:18;;;;;;;12.90;8.40;;;;;;;-144.73;59.47;84364.78;111176;1256;22370;-63
2023/06/10 02:08:04;;;;;;;13.30;8.30;;;;;;;-144.73;59.79;84360.43;110567;1272;23020;-64
2023/06/10 02:10:50;;;;;;;14.40;8.00;;;;;;;-144.73;59.76;84366.75;110626;1272;22192;-64
2023/06/10 02:13:38;;;;;;;12.10;8.40;;;;;;;-144.73;59.47;84360.04;110549;1272;22112;-63
2023/06/10 02:16:24;;;;;;;13.20;7.10;;;;;;;-144.73;58.80;84369.52;110595;1272;22227;-64
2023/06/10 02:19:10;;;;;;;12.60;7.60;;;;;;;-144.73;58.38;84353.32;110612;1272;22243;-63
2023/06/10 02:21:56;;;;;;;13.40;7.90;;;;;;;-144.73;58.23;84350.15;110575;1272;22825;-64
2023/06/10 02:24:42;;;;;;;13.00;7.70;;;;;;;-144.73;58.06;84345.41;110599;1272;22147;-65
2023/06/10 02:27:28;;;;;;;11.70;7.20;;;;;;;-144.73;57.59;84333.16;110572;1272;22206;-64
2023/06/10 02:30:15;;;;;;;13.50;6.90;;;;;;;-144.73;56.80;84312.20;110601;1272;22820;-64
2023/06/10 02:33:01;;;;;;;9.30;7.00;;;;;;;-144.73;56.25;84296.39;110558;1272;22111;-64
2023/06/10 02:35:47;;;;;;;12.80;6.70;;;;;;;-144.73;55.43;84284.14;110628;1272;22220;-65
2023/06/10 02:38:34;;;;;;;10.70;6.50;;;;;;;-144.73;55.20;84279.40;110599;1273;22965;-65
2023/06/10 02:41:21;;;;;;;16.50;7.30;;;;;;;-144.73;55.24;84270.70;111162;1252;22305;-65
2023/06/10 02:44:08;;;;;;;10.80;7.30;;;;;;;-144.73;55.08;84268.33;110936;1253;22127;-65
2023/06/10 02:46:54;;;;;;;10.60;7.30;;;;;;;-144.73;55.32;84258.45;110604;1272;22176;-65
2023/06/10 02:49:40;;;;;;;12.80;7.60;;;;;;;-144.73;55.64;84261.61;110605;1272;22148;-64
2023/06/10 02:52:28;;;;;;;12.70;7.20;;;;;;;-144.73;55.51;84271.10;110616;1273;22107;-65
2023/06/10 02:55:15;;;;;;;11.80;7.50;;;;;;;-144.73;55.56;84264.77;111005;1257;22134;-64
2023/06/10 02:58:04;;;;;;;14.70;8.00;;;;;;;-144.73;55.54;84262.80;110939;1256;22218;-65
2023/06/10 03:00:50;;;;;;;13.20;7.60;;;;;;;-144.73;55.55;84262.80;110620;1273;22859;-65
2023/06/10 03:03:40;;;;;;;12.50;7.00;;;;;;;-144.73;55.42;84260.42;110571;1273;22870;-64
2023/06/10 03:06:29;;;;;;;11.30;7.60;;;;;;;-144.73;55.22;84254.89;111015;1253;22808;-64
2023/06/10 03:09:23;;;;;;;16.10;7.70;;;;;;;-144.73;55.68;84268.33;111033;1258;22980;-65
2023/06/10 03:12:11;;;;;;;12.40;7.60;;;;;;;-144.73;56.48;84262.40;110604;1273;22876;-65
2023/06/10 03:15:01;;;;;;;12.40;8.10;;;;;;;-144.73;56.82;84287.30;110650;1272;22117;-65
2023/06/10 03:17:48;;;;;;;11.40;9.20;;;;;;;-144.73;57.34;84298.37;110607;1272;22231;-64
2023/06/10 03:20:39;;;;;;;14.60;9.20;;;;;;;-144.73;58.08;84297.18;110578;1273;22698;-64
2023/06/10 03:23:27;;;;;;;16.40;9.70;;;;;;;-144.73;58.64;84316.95;110619;1272;22111;-64
2023/06/10 03:26:14;;;;;;;13.90;7.80;;;;;;;-144.73;59.04;84324.85;110602;1272;22133;-64
2023/06/10 03:29:01;;;;;;;10.70;8.80;;;;;;;-144.73;59.29;84333.15;110625;1272;22727;-64
2023/06/10 03:31:47;;;;;;;11.00;7.80;;;;;;;-144.73;59.45;84348.17;110660;1267;22338;-65
2023/06/10 03:34:34;;;;;;;18.20;9.20;;;;;;;-144.73;59.33;84338.30;110663;1253;22148;-64
2023/06/10 03:37:20;;;;;;;13.20;8.90;;;;;;;-144.73;59.44;84358.84;110591;1255;22139;-62
2023/06/10 03:40:08;;;;;;;16.60;8.60;;;;;;;-144.73;59.14;84351.73;110691;1265;23051;-64
2023/06/10 03:42:55;;;;;;;13.40;8.10;;;;;;;-144.73;59.12;84360.43;110690;1268;22110;-63
2023/06/10 03:45:41;;;;;;;10.50;7.90;;;;;;;-144.73;59.33;84368.73;110654;1272;22324;-63
2023/06/10 03:48:28;;;;;;;11.20;8.60;;;;;;;-144.73;59.51;84372.29;110607;1272;22196;-63
2023/06/10 03:51:14;;;;;;;12.80;8.00;;;;;;;-144.73;59.45;84362.41;110573;1272;22329;-63
2023/06/10 03:54:00;;;;;;;15.00;8.30;;;;;;;-144.73;59.24;84347.78;110636;1272;22077;-63
2023/06/10 03:56:48;;;;;;;11.00;7.80;;;;;;;-144.73;58.86;84349.36;110568;1272;22841;-63
2023/06/10 03:59:33;;;;;;;12.00;8.20;;;;;;;-144.73;58.68;84315.36;110566;1273;22274;-64
2023/06/10 04:02:19;;;;;;;10.80;7.70;;;;;;;-144.73;58.18;84290.86;110549;1272;22843;-63
2023/06/10 04:05:06;;;;;;;11.10;8.00;;;;;;;-144.73;57.64;84278.21;110551;1272;22093;-64
2023/06/10 04:07:52;;;;;;;12.70;7.60;;;;;;;-144.73;57.29;84257.27;110546;1273;22163;-62
2023/06/10 04:10:38;;;;;;;11.40;7.80;;;;;;;-144.73;56.90;84207.85;110582;1272;22212;-63
2023/06/10 04:13:24;;;;;;;9.70;7.30;;;;;;;-144.73;56.42;84204.30;110724;1267;22317;-63
2023/06/10 04:16:12;;;;;;;11.80;7.70;;;;;;;-144.73;56.20;84188.89;110584;1272;22866;-65
2023/06/10 04:18:59;;;;;;;11.00;7.30;;;;;;;-144.73;55.70;84159.23;110412;1273;22214;-64
2023/06/10 04:21:45;;;;;;;11.10;7.20;;;;;;;-144.73;55.09;84133.95;110592;1272;23005;-63
2023/06/10 04:24:31;;;;;;;9.80;7.80;;;;;;;-144.73;54.55;84112.20;110630;1272;22159;-63
2023/06/10 04:27:17;;;;;;;12.20;7.20;;;;;;;-144.73;54.09;84107.46;110585;1272;22152;-63
2023/06/10 04:30:04;;;;;;;10.80;7.00;;;;;;;-144.73;53.96;84086.52;110593;1272;22114;-64
2023/06/10 04:32:54;;;;;;;9.50;7.10;;;;;;;-144.73;53.48;84079.40;110603;1272;22118;-62
2023/06/10 04:35:40;;;;;;;9.60;7.60;;;;;;;-144.73;53.39;84059.64;110577;1272;22124;-62
2023/06/10 04:38:28;;;;;;;13.60;7.00;;;;;;;-144.73;53.10;84053.71;110558;1272;22241;-62
2023/06/10 04:41:13;;;;;;;10.80;6.60;;;;;;;-144.73;52.89;84059.24;110573;1273;22186;-62
2023/06/10 04:44:00;;;;;;;10.30;7.10;;;;;;;-144.73;52.92;84045.02;110556;1272;22194;-62
2023/06/10 04:46:46;;;;;;;10.90;6.50;;;;;;;-144.73;52.48;84014.19;110509;1272;22210;-62
2023/06/10 04:49:33;;;;;;;12.10;6.50;;;;;;;-144.73;52.22;84005.48;110569;1272;22132;-62
2023/06/10 04:52:21;;;;;;;12.00;6.80;;;;;;;-144.73;51.80;83988.89;110576;1272;22172;-62
2023/06/10 04:55:08;;;;;;;10.50;6.80;;;;;;;-144.73;51.69;83969.13;110596;1272;22185;-63
2023/06/10 04:57:54;;;;;;;12.00;6.90;;;;;;;-144.73;51.40;83957.27;110547;1273;22117;-62
2023/06/10 05:00:40;;;;;;;11.10;6.30;;;;;;;-144.73;51.14;83932.38;111146;1253;22557;-63
2023/06/10 05:03:26;;;;;;;12.60;7.00;;;;;;;-144.73;51.01;83923.28;110537;1273;22806;-62
2023/06/10 05:06:12;;;;;;;10.80;6.60;;;;;;;-144.73;50.78;83907.48;110552;1273;22191;-62
2023/06/10 05:08:58;;;;;;;11.80;7.30;;;;;;;-144.73;51.02;83927.63;110550;1273;22114;-62
2023/06/10 05:11:45;;;;;;;12.50;6.70;;;;;;;-144.73;51.36;83933.55;110515;1273;22324;-64
2023/06/10 05:14:31;;;;;;;15.10;7.00;;;;;;;-144.73;51.31;83916.96;110562;1273;22110;-63
2023/06/10 05:17:17;;;;;;;10.00;7.10;;;;;;;-144.73;50.59;83883.76;110525;1273;22936;-63
2023/06/10 05:20:04;;;;;;;12.00;6.50;;;;;;;-144.73;49.88;83843.45;110542;1273;22806;-64
2023/06/10 05:22:50;;;;;;;12.50;6.50;;;;;;;-144.73;49.83;83822.10;110619;1273;22117;-63
2023/06/10 05:25:36;;;;;;;10.50;6.60;;;;;;;-144.73;49.37;83807.48;110647;1273;22121;-63
2023/06/10 05:28:22;;;;;;;11.00;6.80;;;;;;;-144.73;49.38;83811.04;110539;1273;22180;-63
2023/06/10 05:31:08;;;;;;;14.30;6.10;;;;;;;-144.73;49.00;83777.05;110521;1273;22928;-63
2023/06/10 05:33:55;;;;;;;10.40;6.90;;;;;;;-144.73;48.71;83733.98;110509;1273;22148;-63
2023/06/10 05:36:41;;;;;;;9.10;6.60;;;;;;;-144.73;48.49;83730.02;110543;1273;22124;-63
2023/06/10 05:39:27;;;;;;;11.40;6.40;;;;;;;-144.73;47.69;83669.16;110510;1273;22126;-64
2023/06/10 05:42:13;;;;;;;12.80;6.80;;;;;;;-144.73;46.86;83603.55;110549;1273;22224;-63
2023/06/10 05:44:59;;;;;;;9.60;6.00;;;;;;;-144.73;46.20;83533.20;110551;1273;22110;-63
2023/06/10 05:47:45;;;;;;;18.40;6.70;;;;;;;-144.73;45.45;83478.67;110590;1273;22101;-63
2023/06/10 05:50:37;;;;;;;11.60;6.60;;;;;;;-144.73;44.45;83413.46;110515;1273;22225;-63
2023/06/10 05:53:24;;;;;;;8.90;6.30;;;;;;;-144.73;43.91;83349.45;110525;1273;22229;-63
2023/06/10 05:56:10;;;;;;;11.10;6.20;;;;;;;-144.73;43.62;83237.22;110550;1273;22144;-62
2023/06/10 05:58:56;;;;;;;8.20;6.00;;;;;;;-144.73;42.91;83211.93;110512;1273;22809;-63
2023/06/10 06:01:42;;;;;;;9.30;5.90;;;;;;;-144.73;42.64;83173.99;110899;1257;22129;-63
2023/06/10 06:04:28;;;;;;;10.90;6.70;;;;;;;-144.73;42.22;83141.98;110550;1273;22100;-64
2023/06/10 06:07:14;;;;;;;10.90;6.30;;;;;;;-144.73;41.99;83122.63;110530;1275;22257;-62
2023/06/10 06:10:00;;;;;;;11.00;6.10;;;;;;;-144.73;41.88;83101.68;110535;1275;22111;-62
2023/06/10 06:12:46;;;;;;;9.10;6.10;;;;;;;-144.73;41.61;82906.48;110508;1275;22126;-63
2023/06/10 06:15:32;;;;;;;10.00;6.00;;;;;;;-144.73;40.59;82873.69;110510;1275;22841;-63
2023/06/10 06:18:19;;;;;;;11.60;6.10;;;;;;;-144.73;39.46;82572.21;110507;1275;22214;-63
2023/06/10 06:21:04;;;;;;;11.90;5.60;;;;;;;-144.73;38.29;82569.05;110917;1257;22340;-64
2023/06/10 06:23:50;;;;;;;8.60;5.60;;;;;;;-144.73;37.43;82263.26;110513;1275;22712;-64
2023/06/10 06:26:36;;;;;;;7.70;5.30;;;;;;;-144.73;36.00;82096.16;110504;1275;22323;-65
2023/06/10 06:29:22;;;;;;;8.00;5.20;;;;;;;-144.73;35.44;81991.07;110543;1275;22168;-65
2023/06/10 06:32:08;;;;;;;11.10;5.10;;;;;;;-144.73;34.93;81999.36;110491;1275;22876;-65
2023/06/10 06:34:55;;;;;;;7.60;4.30;;;;;;;-144.73;34.65;82110.38;110520;1275;22103;-65
2023/06/10 06:37:41;;;;;;;7.60;4.20;;;;;;;-144.73;34.89;82079.16;110520;1275;22123;-66
2023/06/10 06:40:36;;;;;;;7.00;4.30;;;;;;;-144.73;34.88;81923.91;110504;1275;22151;-64
2023/06/10 06:43:22;;;;;;;10.70;4.70;;;;;;;-144.73;34.50;81738.25;110501;1275;22232;-64
2023/06/10 06:46:34;;;;;;;8.40;4.30;;;;;;;-144.73;33.38;81525.73;110534;1275;22125;-64
2023/06/10 06:49:20;;;;;;;7.10;3.90;;;;;;;-144.73;32.77;81478.73;110539;1275;22762;-64
2023/06/10 06:52:07;;;;;;;6.70;4.40;;;;;;;-144.73;32.42;81417.90;110497;1275;22923;-64
2023/06/10 06:54:53;;;;;;;7.60;3.80;;;;;;;-144.73;32.65;81552.60;110525;1275;22221;-65
2023/06/10 07:00:22;;;;;;;6.20;3.70;;;;;;;-144.73;32.01;81462.17;103561;1304;544965;-67
2023/06/10 07:03:08;;;;;;;5.40;4.10;;;;;;;-144.73;31.46;81109.83;105843;1283;25224;-66
2023/06/10 07:05:54;;;;;;;5.80;3.60;;;;;;;-144.73;30.76;81157.23;105874;1288;24275;-66
2023/06/10 07:08:40;;;;;;;5.40;3.60;;;;;;;-144.73;30.85;81083.37;105851;1280;25376;-66
2023/06/10 07:11:27;;;;;;;5.00;3.50;;;;;;;-144.73;30.66;81009.12;105898;1280;22556;-64
2023/06/10 07:14:14;;;;;;;7.30;3.50;;;;;;;-144.73;30.55;80976.73;105908;1285;200385;-65
2023/06/10 07:17:00;;;;;;;5.60;3.50;;;;;;;-144.73;30.68;80986.21;107018;1285;23780;-65
2023/06/10 07:19:47;;;;;;;7.40;3.50;;;;;;;-144.73;31.14;80994.11;106813;1282;25466;-64
2023/06/10 07:22:33;;;;;;;6.20;4.00;;;;;;;-144.73;30.63;80964.49;106285;1270;22525;-64
2023/06/10 07:25:19;;;;;;;8.20;4.30;;;;;;;-144.73;31.00;80958.96;106226;1270;22532;-65
2023/06/10 07:28:05;;;;;;;10.10;4.90;;;;;;;-144.73;31.06;80996.48;106164;1285;25302;-66
2023/06/10 07:30:52;;;;;;;8.00;5.30;;;;;;;-144.73;31.61;81238.59;106221;1286;22545;-66
2023/06/10 07:33:43;;;;;;;9.80;5.20;;;;;;;-144.73;32.11;81319.95;106138;1286;25397;-65
2023/06/10 07:36:29;;;;;;;9.30;5.40;;;;;;;-144.73;32.97;81568.80;106167;1286;25253;-66
2023/06/10 07:39:15;;;;;;;9.90;5.50;;;;;;;-144.73;33.67;81745.36;106136;1286;22529;-65
2023/06/10 07:42:02;;;;;;;9.50;4.80;;;;;;;-144.73;34.26;81853.98;106143;1286;24231;-64
2023/06/10 07:44:48;;;;;;;9.70;5.00;;;;;;;-144.73;34.52;81666.77;106137;1286;22571;-65
2023/06/10 07:47:35;;;;;;;11.00;4.70;;;;;;;-144.73;34.59;82096.95;106127;1285;22567;-65
2023/06/10 07:50:21;;;;;;;8.40;4.50;;;;;;;-144.73;35.98;82330.42;106225;1285;22529;-66
2023/06/10 07:53:07;;;;;;;9.50;4.90;;;;;;;-144.73;36.74;81989.89;106218;1279;22529;-66
2023/06/10 07:55:54;;;;;;;9.60;4.50;;;;;;;-144.73;35.81;81814.89;106365;1279;26498;-65
2023/06/10 07:58:40;;;;;;;8.70;4.10;;;;;;;-144.73;34.91;81664.78;106360;1280;22526;-62
2023/06/10 08:01:26;;;;;;;8.20;4.00;;;;;;;-144.73;33.87;81514.29;106282;1280;23874;-65
2023/06/10 08:04:12;;;;;;;6.80;4.00;;;;;;;-144.73;33.46;81411.20;106262;1281;22679;-65
2023/06/10 08:06:59;;;;;;;8.00;3.60;;;;;;;-144.73;32.94;81342.07;106254;1282;22539;-65
2023/06/10 08:09:45;;;;;;;8.10;4.40;;;;;;;-144.73;32.98;81360.63;106288;1282;22526;-65
2023/06/10 08:12:32;;;;;;;5.60;3.50;;;;;;;-144.73;32.90;81310.47;106344;1282;22471;-66
2023/06/10 08:15:19;;;;;;;7.90;3.50;;;;;;;-144.73;32.09;81165.91;106337;1259;22539;-65
2023/06/10 08:18:05;;;;;;;6.00;3.20;;;;;;;-144.73;31.44;81090.88;106472;1282;22533;-67
2023/06/10 08:20:51;;;;;;;8.90;3.60;;;;;;;-144.73;31.28;81223.18;106315;1282;25230;-64
2023/06/10 08:23:37;;;;;;;6.40;3.60;;;;;;;-144.73;31.67;81224.36;106261;1282;22529;-67
2023/06/10 08:26:24;;;;;;;5.10;3.40;;;;;;;-144.73;31.79;81297.84;106276;1282;25250;-68
2023/06/10 08:29:12;;;;;;;9.60;3.20;;;;;;;-144.73;32.26;81631.99;106323;1267;22533;-68
2023/06/10 08:31:59;;;;;;;4.90;3.30;;;;;;;-144.73;32.95;81733.52;106311;1282;24279;-70
2023/06/10 08:34:45;;;;;;;8.60;3.50;;;;;;;-144.73;33.80;81941.30;106269;1282;22533;-68
2023/06/10 08:37:31;;;;;;;5.80;3.90;;;;;;;-144.73;34.94;82160.94;106275;1282;25360;-65
2023/06/10 08:40:17;;;;;;;7.30;3.80;;;;;;;-144.73;35.80;82136.05;106263;1282;22529;-64
2023/06/10 08:43:07;;;;;;;6.50;4.20;;;;;;;-144.73;36.13;82003.71;106327;1282;25353;-68
2023/06/10 08:45:59;;;;;;;6.20;3.70;;;;;;;-144.73;35.49;81882.83;106361;1267;24690;-66
2023/06/10 08:48:48;;;;;;;6.50;3.90;;;;;;;-144.73;35.18;81823.98;106290;1282;22528;-67
2023/06/10 08:51:36;;;;;;;9.30;3.70;;;;;;;-144.73;34.63;81704.67;106351;1282;22640;-64
2023/06/10 08:54:27;;;;;;;5.90;3.70;;;;;;;-144.73;34.00;81900.20;106283;1282;24222;-67
2023/06/10 08:57:15;;;;;;;8.40;4.10;;;;;;;-144.73;34.76;82152.25;106232;1283;21752;-65
2023/06/10 09:00:03;;;;;;;8.00;4.10;;;;;;;-144.73;35.60;82209.92;106260;1283;22532;-69
2023/06/10 09:02:50;;;;;;;5.40;3.80;;;;;;;-144.73;36.10;82173.98;106294;1282;22548;-63
2023/06/10 09:05:37;;;;;;;7.30;3.80;;;;;;;-144.73;36.17;82217.44;106336;1282;22641;-68
2023/06/10 09:08:24;;;;;;;8.80;3.90;;;;;;;-144.73;36.31;82275.90;106677;1279;22819;-68
2023/06/10 09:11:11;;;;;;;6.10;3.70;;;;;;;-144.73;36.88;82414.98;106726;1279;22650;-65
2023/06/10 09:13:58;;;;;;;8.40;3.80;;;;;;;-144.73;37.98;82512.55;106696;1279;24316;-68
2023/06/10 09:16:46;;;;;;;10.20;4.30;;;;;;;-144.73;38.66;82536.27;106683;1279;24331;-67
2023/06/10 09:19:33;;;;;;;5.50;3.50;;;;;;;-144.73;38.60;82622.00;106738;1279;22536;-66
2023/06/10 09:22:19;;;;;;;7.70;4.10;;;;;;;-144.73;38.98;82722.36;106660;1279;25364;-69
2023/06/10 09:25:08;;;;;;;6.30;4.10;;;;;;;-144.73;39.73;82804.15;106680;1279;25250;-66
2023/06/10 09:27:56;;;;;;;6.30;4.50;;;;;;;-144.73;40.82;82833.38;106656;1279;22594;-70
2023/06/10 09:30:42;;;;;;;8.20;4.30;;;;;;;-144.73;41.80;82902.92;106647;1279;22520;-68
2023/06/10 09:33:28;;;;;;;6.50;4.50;;;;;;;-144.73;42.59;82965.75;106685;1279;22655;-69
2023/06/10 09:36:22;;;;;;;6.20;4.20;;;;;;;-144.73;42.96;83038.85;106692;1264;22539;-68
2023/06/10 09:39:17;;;;;;;8.80;4.90;;;;;;;-144.73;43.70;83057.83;106690;1279;24406;-69
2023/06/10 09:42:17;;;;;;;6.40;4.50;;;;;;;-144.73;43.74;83057.82;106650;1263;24214;-67
2023/06/10 09:45:07;;;;;;;10.30;4.40;;;;;;;-144.73;42.90;83031.35;106639;1279;22502;-66
2023/06/10 09:47:53;;;;;;;8.40;4.80;;;;;;;-144.73;42.51;83022.26;106653;1279;22525;-70
2023/06/10 09:50:44;;;;;;;8.60;4.60;;;;;;;-144.73;42.53;83007.25;106659;1279;25356;-68
2023/06/10 09:53:33;;;;;;;7.70;4.60;;;;;;;-144.73;41.85;82972.86;106669;1279;22523;-67
2023/06/10 09:56:20;;;;;;;6.90;4.20;;;;;;;-144.73;41.75;83008.83;106717;1279;25356;-67
2023/06/10 09:59:07;;;;;;;7.90;4.80;;;;;;;-144.73;42.30;83029.77;106705;1279;22520;-69
2023/06/10 10:01:56;;;;;;;7.90;4.40;;;;;;;-144.73;42.11;83030.16;106661;1279;23861;-69
2023/06/10 10:04:44;;;;;;;7.20;4.80;;;;;;;-144.73;42.16;83019.10;106652;1279;22526;-68
2023/06/10 10:07:31;;;;;;;9.40;5.50;;;;;;;-144.73;41.83;83017.13;106711;1279;22536;-66
2023/06/10 10:10:19;;;;;;;9.80;4.90;;;;;;;-144.73;42.42;83057.42;106679;1279;22735;-68
2023/06/10 10:13:06;;;;;;;6.00;4.20;;;;;;;-144.73;42.19;83038.45;106683;1279;22532;-66
2023/06/10 10:15:55;;;;;;;7.40;4.60;;;;;;;-144.73;42.06;83044.77;106658;1279;22572;-67
2023/06/10 10:19:05;;;;;;;8.60;4.20;;;;;;;-144.73;42.19;83025.42;106656;1279;22616;-65
2023/06/10 10:22:04;;;;;;;9.10;4.60;;;;;;;-144.73;41.84;83065.33;106700;1279;25234;-68
2023/06/10 10:24:55;;;;;;;8.80;4.70;;;;;;;-144.73;42.17;83092.20;106705;1279;24559;-68
2023/06/10 10:28:08;;;;;;;9.50;4.50;;;;;;;-144.73;42.15;83059.40;106692;1279;22660;-67
2023/06/10 10:31:02;;;;;;;9.00;4.70;;;;;;;-144.73;41.04;83006.85;106668;1279;24212;-69
2023/06/10 10:33:57;;;;;;;9.80;4.50;;;;;;;-144.73;40.39;82971.67;106716;1279;22526;-68
2023/06/10 10:36:45;;;;;;;7.90;4.20;;;;;;;-144.73;39.69;82932.16;106681;1279;25370;-66
2023/06/10 10:39:35;;;;;;;13.00;4.50;;;;;;;-144.73;39.03;82911.23;106687;1279;22617;-66
2023/06/10 10:42:23;;;;;;;9.40;3.90;;;;;;;-144.73;38.49;82920.31;106681;1279;22560;-66
2023/06/10 10:45:10;;;;;;;9.90;4.10;;;;;;;-144.73;38.55;82963.38;106629;1279;22517;-66
2023/06/10 10:47:57;;;;;;;6.70;4.60;;;;;;;-144.73;39.11;82957.05;106666;1279;22529;-66
2023/06/10 10:50:57;;;;;;;7.10;4.20;;;;;;;-144.73;38.89;82953.90;106730;1279;24250;-66
2023/06/10 10:53:44;;;;;;;7.60;4.10;;;;;;;-144.73;38.60;82972.08;107380;1279;24063;-64
2023/06/10 10:56:31;;;;;;;9.80;4.10;;;;;;;-144.73;38.52;82962.98;106765;1279;22741;-67
2023/06/10 10:59:19;;;;;;;9.70;3.90;;;;;;;-144.73;38.81;82880.02;106724;1279;22523;-66
2023/06/10 11:02:06;;;;;;;8.70;4.30;;;;;;;-144.73;39.04;82893.05;106709;1279;24196;-66
2023/06/10 11:04:54;;;;;;;9.10;4.20;;;;;;;-144.73;39.01;82866.97;106701;1279;25345;-67
2023/06/10 11:07:53;;;;;;;5.70;4.10;;;;;;;-144.73;37.87;82820.34;106650;1279;22533;-68
2023/06/10 11:10:54;;;;;;;6.00;3.80;;;;;;;-144.73;37.90;82807.70;106648;1258;22527;-67
2023/06/10 11:13:58;;;;;;;8.30;4.30;;;;;;;-144.73;37.72;82821.92;106663;1279;24276;-67
2023/06/10 11:16:47;;;;;;;7.90;4.50;;;;;;;-144.73;37.84;82860.64;106748;1278;24262;-67
2023/06/10 11:19:40;;;;;;;7.50;4.40;;;;;;;-144.73;37.97;82889.10;106672;1278;22539;-67
2023/06/10 11:22:27;;;;;;;9.10;4.80;;;;;;;-144.73;38.47;82906.09;106687;1278;22575;-66
2023/06/10 11:25:14;;;;;;;7.90;4.00;;;;;;;-144.73;38.37;82916.36;106666;1278;22702;-66
2023/06/10 11:28:01;;;;;;;9.30;4.10;;;;;;;-144.73;38.09;82964.56;110241;1278;22126;-67
2023/06/10 11:30:57;;;;;;;7.00;3.90;;;;;;;-144.73;38.50;82997.36;110714;1259;22985;-68
2023/06/10 11:33:43;;;;;;;7.40;4.00;;;;;;;-144.73;38.38;83052.30;110243;1278;22126;-67
2023/06/10 11:36:30;;;;;;;7.80;4.80;;;;;;;-144.73;38.46;83079.16;110565;1259;22326;-66
2023/06/10 11:39:17;;;;;;;6.20;4.00;;;;;;;-144.73;38.87;83106.82;110233;1278;22115;-66
2023/06/10 11:42:04;;;;;;;6.80;4.70;;;;;;;-144.73;39.10;83109.19;110103;1265;22543;-66
2023/06/10 11:44:54;;;;;;;9.50;4.50;;;;;;;-144.73;39.55;83126.97;110211;1278;22226;-64
2023/06/10 11:47:40;;;;;;;12.00;4.40;;;;;;;-144.73;40.03;83142.77;110252;1278;22720;-65
2023/06/10 11:50:33;;;;;;;11.50;4.20;;;;;;;-144.73;40.33;83179.13;110255;1278;22156;-68
2023/06/10 11:53:19;;;;;;;6.60;4.30;;;;;;;-144.73;40.44;83185.06;110214;1277;22155;-64
2023/06/10 11:56:05;;;;;;;7.00;4.40;;;;;;;-144.73;40.61;83168.86;110249;1259;23268;-65
2023/06/10 11:58:54;;;;;;;9.10;4.40;;;;;;;-144.73;40.88;83147.13;110241;1277;22900;-59
2023/06/10 12:01:44;;;;;;;5.70;4.20;;;;;;;-144.73;41.31;83145.94;110246;1278;22856;-66
2023/06/10 12:04:30;;;;;;;6.70;4.10;;;;;;;-144.73;41.55;83168.46;110229;1278;22913;-66
2023/06/10 12:07:19;;;;;;;8.70;4.50;;;;;;;-144.73;41.58;83185.85;110389;1276;22135;-66
2023/06/10 12:10:05;;;;;;;10.30;4.50;;;;;;;-144.73;41.67;83157.39;110376;1276;22925;-66
2023/06/10 12:13:11;;;;;;;7.70;5.00;;;;;;;-144.73;41.78;83141.59;110381;1276;22186;-66
2023/06/10 12:16:10;;;;;;;7.20;4.50;;;;;;;-144.73;41.68;83118.67;110322;1276;22839;-66
2023/06/10 12:19:02;;;;;;;9.20;5.00;;;;;;;-144.73;42.03;83143.56;110369;1276;22202;-66
2023/06/10 12:21:48;;;;;;;9.50;4.80;;;;;;;-144.73;42.64;83192.95;110370;1276;22213;-65
2023/06/10 12:24:44;;;;;;;7.80;4.50;;;;;;;-144.73;43.13;83198.49;110358;1276;22298;-66
2023/06/10 12:27:31;;;;;;;8.90;5.00;;;;;;;-144.73;43.60;83228.91;110370;1276;22171;-65
2023/06/10 12:30:22;;;;;;;10.70;5.50;;;;;;;-144.73;43.95;83249.48;110376;1269;22319;-66
2023/06/10 12:33:21;;;;;;;11.30;5.20;;;;;;;-144.73;44.16;83267.25;110291;1271;22162;-65
2023/06/10 12:36:16;;;;;;;12.80;5.10;;;;;;;-144.73;44.43;83247.10;110280;1262;22352;-65
2023/06/10 12:39:05;;;;;;;10.80;5.80;;;;;;;-144.73;44.44;83220.63;110317;1276;22251;-65
2023/06/10 12:41:52;;;;;;;10.50;5.30;;;;;;;-144.73;44.50;83236.04;110325;1276;22288;-65